createdAt,value
2023-02-24T00:04:39.799Z,8.28
2023-02-24T00:09:41.642Z,8.25
2023-02-24T00:14:45.532Z,8.25
2023-02-24T00:19:47.189Z,8.28
2023-02-24T00:24:48.954Z,8.27
2023-02-24T00:29:50.740Z,8.23
2023-02-24T00:34:52.406Z,8.17
2023-02-24T00:39:58.619Z,8.06
2023-02-24T00:45:00.391Z,8.02
2023-02-24T00:50:02.203Z,7.94
2023-02-24T00:55:14.073Z,7.88
2023-02-24T01:00:16.772Z,7.89
2023-02-24T01:05:18.450Z,7.91
2023-02-24T01:10:22.509Z,7.84
2023-02-24T01:15:24.840Z,7.87
2023-02-24T01:20:30.491Z,7.84
2023-02-24T01:25:32.472Z,7.65
2023-02-24T01:30:34.312Z,7.66
2023-02-24T01:35:36.061Z,7.67
2023-02-24T01:40:38.023Z,7.57
2023-02-24T01:45:40.290Z,7.62
2023-02-24T01:50:41.994Z,7.59
2023-02-24T01:55:49.346Z,7.58
2023-02-24T02:00:51.948Z,7.44
2023-02-24T02:05:59.293Z,7.38
2023-02-24T02:11:06.382Z,7.43
2023-02-24T02:16:35.180Z,7.45
2023-02-24T02:22:02.876Z,7.28
2023-02-24T02:27:21.272Z,7.33
2023-02-24T02:32:52.270Z,7.31
2023-02-24T02:38:05.166Z,7.25
2023-02-24T02:43:18.854Z,7.36
2023-02-24T02:48:34.611Z,7.44
2023-02-24T02:53:47.260Z,7.50
2023-02-24T02:58:53.874Z,7.61
2023-02-24T03:04:02.200Z,7.51
2023-02-24T03:09:16.162Z,7.41
2023-02-24T03:14:24.073Z,7.39
2023-02-24T03:19:37.443Z,7.39
2023-02-24T03:24:44.392Z,7.37
2023-02-24T03:30:00.490Z,7.24
2023-02-24T03:35:17.419Z,7.25
2023-02-24T03:40:20.982Z,7.29
2023-02-24T03:45:24.048Z,7.27
2023-02-24T03:50:31.770Z,7.36
2023-02-24T03:56:15.938Z,7.37
2023-02-24T04:01:36.610Z,7.42
2023-02-24T04:06:58.133Z,7.36
2023-02-24T04:12:14.318Z,7.42
2023-02-24T04:17:23.708Z,7.42
2023-02-24T04:22:27.262Z,7.37
2023-02-24T04:27:29.105Z,7.48
2023-02-24T04:32:31.641Z,7.48
2023-02-24T04:37:37.388Z,7.25
2023-02-24T04:42:49.236Z,7.08
2023-02-24T04:47:56.387Z,6.95
2023-02-24T04:53:01.128Z,7.03
2023-02-24T04:58:02.951Z,6.91
2023-02-24T05:03:06.574Z,6.87
2023-02-24T05:08:10.153Z,6.74
2023-02-24T05:13:16.024Z,6.68
2023-02-24T05:18:17.778Z,6.64
2023-02-24T05:23:19.507Z,6.62
2023-02-24T05:28:23.316Z,6.71
2023-02-24T05:33:24.978Z,6.72
2023-02-24T05:38:26.636Z,6.75
2023-02-24T05:43:31.381Z,6.79
2023-02-24T05:48:35.487Z,6.79
2023-02-24T05:53:37.386Z,6.91
2023-02-24T05:58:45.248Z,7.02
2023-02-24T06:03:48.133Z,7.16
2023-02-24T06:08:50.152Z,6.91
2023-02-24T06:13:57.794Z,6.90
2023-02-24T06:18:59.647Z,7.04
2023-02-24T06:24:02.049Z,7.16
2023-02-24T06:29:05.617Z,7.10
2023-02-24T06:34:10.630Z,7.13
2023-02-24T06:39:14.722Z,7.15
2023-02-24T06:44:16.499Z,7.02
2023-02-24T06:49:18.171Z,7.04
2023-02-24T06:54:19.864Z,7.09
2023-02-24T06:59:28.713Z,7.14
2023-02-24T07:04:30.556Z,7.04
2023-02-24T07:09:32.336Z,7.01
2023-02-24T07:14:37.052Z,7.01
2023-02-24T07:19:38.859Z,6.90
2023-02-24T07:24:46.362Z,7.00
2023-02-24T07:29:53.617Z,7.06
2023-02-24T07:34:55.463Z,7.17
2023-02-24T07:39:57.126Z,7.29
2023-02-24T07:44:58.960Z,7.40
2023-02-24T07:50:00.786Z,7.41
2023-02-24T07:55:03.301Z,7.33
2023-02-24T08:00:19.723Z,7.41
2023-02-24T08:05:23.080Z,7.33
2023-02-24T08:10:24.875Z,7.03
2023-02-24T08:15:34.107Z,7.14
2023-02-24T08:20:51.325Z,7.33
2023-02-24T08:25:53.901Z,7.40
2023-02-24T08:31:04.768Z,7.43
2023-02-24T08:36:06.665Z,7.61
2023-02-24T08:41:21.617Z,7.45
2023-02-24T08:46:33.019Z,7.37
2023-02-24T08:51:36.463Z,7.32
2023-02-24T08:56:43.703Z,7.45
2023-02-24T09:02:04.205Z,7.78
2023-02-24T09:07:15.484Z,7.96
2023-02-24T09:12:26.072Z,8.39
2023-02-24T09:17:53.559Z,8.57
2023-02-24T09:23:08.962Z,8.94
2023-02-24T09:28:18.044Z,9.22
2023-02-24T09:33:41.914Z,9.23
2023-02-24T09:39:01.536Z,9.17
2023-02-24T09:44:18.611Z,9.40
2023-02-24T09:49:24.434Z,9.77
2023-02-24T09:54:35.442Z,9.72
2023-02-24T10:00:01.449Z,9.62
2023-02-24T10:05:38.596Z,9.46
2023-02-24T10:11:01.052Z,9.33
2023-02-24T10:16:07.376Z,9.44
2023-02-24T10:21:30.838Z,9.23
2023-02-24T10:27:01.192Z,9.23
2023-02-24T10:32:34.410Z,9.13
2023-02-24T10:37:36.458Z,9.10
2023-02-24T10:42:50.954Z,9.18
2023-02-24T10:47:57.402Z,9.15
2023-02-24T10:53:11.487Z,9.67
2023-02-24T10:59:01.686Z,9.40
2023-02-24T11:04:21.953Z,9.15
2023-02-24T11:09:29.214Z,9.18
2023-02-24T11:14:50.694Z,9.20
2023-02-24T11:20:15.765Z,9.03
2023-02-24T11:25:37.532Z,8.84
2023-02-24T11:30:48.307Z,9.01
2023-02-24T11:36:27.822Z,9.21
2023-02-24T11:41:37.978Z,9.05
2023-02-24T11:47:00.714Z,9.09
2023-02-24T11:52:07.150Z,9.23
2023-02-24T11:57:16.943Z,9.44
2023-02-24T12:02:41.844Z,9.58
2023-02-24T12:07:52.671Z,9.59
2023-02-24T12:13:17.765Z,9.26
2023-02-24T12:18:31.357Z,9.26
2023-02-24T12:23:39.629Z,9.42
2023-02-24T12:29:02.771Z,9.32
2023-02-24T12:34:23.103Z,9.53
2023-02-24T12:39:46.039Z,9.19
2023-02-24T12:44:59.226Z,8.87
2023-02-24T12:50:16.746Z,8.84
2023-02-24T12:55:27.693Z,8.84
2023-02-24T13:00:41.925Z,8.60
2023-02-24T13:05:58.972Z,8.71
2023-02-24T13:11:15.493Z,8.93
2023-02-24T13:16:34.842Z,8.73
2023-02-24T13:21:36.752Z,8.85
2023-02-24T13:26:38.613Z,8.86
2023-02-24T13:31:46.975Z,8.91
2023-02-24T13:36:50.622Z,9.06
2023-02-24T13:42:27.654Z,8.83
2023-02-24T13:47:48.019Z,8.81
2023-02-24T13:53:02.898Z,8.74
2023-02-24T13:58:34.267Z,8.73
2023-02-24T14:03:41.390Z,8.84
2023-02-24T14:08:51.143Z,8.94
2023-02-24T14:13:55.715Z,8.85
2023-02-24T14:19:02.530Z,8.58
2023-02-24T14:24:12.337Z,8.44
2023-02-24T14:29:28.187Z,8.48
2023-02-24T14:34:55.919Z,8.32
2023-02-24T14:46:25.416Z,8.02
2023-02-24T14:51:36.458Z,7.87
2023-02-24T14:56:38.254Z,7.63
2023-02-24T15:01:45.940Z,7.39
2023-02-24T15:06:49.185Z,7.16
2023-02-24T15:11:53.488Z,7.06
2023-02-24T15:17:00.501Z,6.93
2023-02-24T15:22:02.160Z,6.66
2023-02-24T15:27:21.760Z,6.54
2023-02-24T15:32:26.037Z,6.34
2023-02-24T15:37:33.245Z,6.20
2023-02-24T15:42:35.677Z,5.94
2023-02-24T15:47:45.513Z,6.07
2023-02-24T15:52:47.602Z,6.20
2023-02-24T15:57:58.999Z,6.14
2023-02-24T16:03:00.910Z,5.96
2023-02-24T16:08:04.320Z,5.97
2023-02-24T16:13:18.950Z,5.91
2023-02-24T16:18:29.718Z,5.79
2023-02-24T16:23:39.000Z,5.73
2023-02-24T16:28:40.853Z,5.59
2023-02-24T16:33:54.110Z,5.65
2023-02-24T16:39:05.829Z,5.39
2023-02-24T16:44:23.357Z,5.46
2023-02-24T16:49:26.119Z,5.36
2023-02-24T16:54:29.495Z,5.28
2023-02-24T16:59:52.817Z,5.17
2023-02-24T17:04:54.613Z,5.24
2023-02-24T17:09:58.361Z,5.34
2023-02-24T17:15:00.272Z,5.38
2023-02-24T17:20:12.504Z,5.47
2023-02-24T17:25:20.002Z,5.43
2023-02-24T17:30:25.728Z,5.50
2023-02-24T17:41:55.202Z,5.44
2023-02-24T17:46:57.004Z,5.26
2023-02-24T17:51:58.798Z,5.24
2023-02-24T17:57:02.738Z,5.26
2023-02-24T18:02:13.635Z,5.24
2023-02-24T18:07:18.106Z,5.23
2023-02-24T18:12:21.056Z,5.15
2023-02-24T18:17:26.002Z,5.08
2023-02-24T18:22:27.801Z,5.13
2023-02-24T18:27:30.260Z,5.11
2023-02-24T18:32:34.605Z,5.00
2023-02-24T18:37:38.404Z,5.01
2023-02-24T18:42:49.144Z,5.05
2023-02-24T18:47:55.920Z,5.10
2023-02-24T18:52:57.747Z,5.13
2023-02-24T18:57:59.463Z,5.22
2023-02-24T19:03:06.346Z,5.18
2023-02-24T19:08:18.866Z,5.25
2023-02-24T19:13:22.708Z,5.32
2023-02-24T19:18:25.450Z,5.42
2023-02-24T19:23:28.450Z,5.41
2023-02-24T19:28:32.538Z,5.50
2023-02-24T19:33:36.569Z,5.39
2023-02-24T19:38:41.400Z,5.33
2023-02-24T19:43:44.297Z,5.06
2023-02-24T19:48:46.374Z,4.87
2023-02-24T19:53:51.473Z,4.90
2023-02-24T19:58:54.810Z,4.96
2023-02-24T20:03:59.945Z,4.82
2023-02-24T20:09:02.667Z,4.70
2023-02-24T20:14:05.321Z,4.72
2023-02-24T20:19:09.361Z,4.76
2023-02-24T20:24:14.279Z,4.88
2023-02-24T20:29:18.293Z,4.90
2023-02-24T20:34:20.037Z,4.87
2023-02-24T20:39:25.107Z,4.72
2023-02-24T20:44:27.158Z,4.61
2023-02-24T20:49:28.862Z,4.72
2023-02-24T20:54:30.518Z,4.68
2023-02-24T20:59:32.234Z,4.73
2023-02-24T21:04:33.903Z,4.84
2023-02-24T21:09:37.304Z,4.72
2023-02-24T21:14:39.149Z,4.57
2023-02-24T21:19:40.888Z,4.54
2023-02-24T21:24:42.937Z,4.49
2023-02-24T21:29:45.286Z,4.56
2023-02-24T21:34:47.058Z,4.67
2023-02-24T21:39:49.261Z,4.78
2023-02-24T21:44:51.224Z,4.59
2023-02-24T21:49:52.996Z,4.50
2023-02-24T21:54:54.677Z,4.54
2023-02-24T21:59:56.938Z,4.55
2023-02-24T22:04:58.601Z,4.57
2023-02-24T22:10:00.257Z,4.60
2023-02-24T22:15:01.908Z,4.51
2023-02-24T22:20:08.627Z,4.52
2023-02-24T22:25:10.912Z,4.46
2023-02-24T22:30:12.923Z,4.48
2023-02-24T22:35:14.621Z,4.56
2023-02-24T22:40:17.683Z,4.33
2023-02-24T22:45:20.146Z,4.27
2023-02-24T22:50:26.032Z,3.69
2023-02-24T22:55:29.992Z,3.55
2023-02-24T23:00:31.788Z,3.62
2023-02-24T23:05:33.460Z,3.63
2023-02-24T23:10:35.131Z,3.46
2023-02-24T23:15:40.844Z,3.63
2023-02-24T23:20:42.738Z,3.78
2023-02-24T23:25:51.320Z,3.90
2023-02-24T23:30:54.182Z,3.96
2023-02-24T23:35:56.002Z,3.75
2023-02-24T23:40:57.662Z,3.62
2023-02-24T23:46:03.617Z,3.72
2023-02-24T23:51:07.745Z,3.84
2023-02-24T23:56:14.037Z,4.07
